sensor_id;sensor_type;location;lat;lon;timestamp;pressure;altitude;pressure_sealevel;temperature;humidity
11672;BME280;5892;43.412;24.612;2023-09-08T00:01:15;100506.56;;;19.16;73.81
11672;BME280;5892;43.412;24.612;2023-09-08T00:03:42;100503.38;;;19.14;74.34
11672;BME280;5892;43.412;24.612;2023-09-08T00:06:09;100506.44;;;19.09;74.36
11672;BME280;5892;43.412;24.612;2023-09-08T00:08:40;100514.56;;;19.17;74.97
11672;BME280;5892;43.412;24.612;2023-09-08T00:11:06;100508.94;;;19.14;75.21
11672;BME280;5892;43.412;24.612;2023-09-08T00:13:33;100509.56;;;19.07;76.51
11672;BME280;5892;43.412;24.612;2023-09-08T00:16:00;100513.44;;;19.02;77.41
11672;BME280;5892;43.412;24.612;2023-09-08T00:18:27;100514.53;;;18.98;77.13
11672;BME280;5892;43.412;24.612;2023-09-08T00:20:55;100515.63;;;18.93;76.58
11672;BME280;5892;43.412;24.612;2023-09-08T00:23:22;100518.81;;;18.95;76.54
11672;BME280;5892;43.412;24.612;2023-09-08T00:25:50;100505.50;;;18.85;75.89
11672;BME280;5892;43.412;24.612;2023-09-08T00:28:17;100507.03;;;18.83;75.24
11672;BME280;5892;43.412;24.612;2023-09-08T00:30:44;100510.88;;;18.94;73.92
11672;BME280;5892;43.412;24.612;2023-09-08T00:33:11;100513.28;;;18.95;72.85
11672;BME280;5892;43.412;24.612;2023-09-08T00:35:39;100512.56;;;18.98;71.80
11672;BME280;5892;43.412;24.612;2023-09-08T00:38:06;100509.25;;;18.93;72.13
11672;BME280;5892;43.412;24.612;2023-09-08T00:43:41;100510.72;;;19.06;70.92
11672;BME280;5892;43.412;24.612;2023-09-08T00:46:08;100512.19;;;19.00;70.68
11672;BME280;5892;43.412;24.612;2023-09-08T00:48:36;100511.47;;;19.03;70.61
11672;BME280;5892;43.412;24.612;2023-09-08T00:51:03;100507.88;;;19.02;73.37
11672;BME280;5892;43.412;24.612;2023-09-08T00:53:31;100512.19;;;19.00;74.95
11672;BME280;5892;43.412;24.612;2023-09-08T00:55:59;100515.16;;;18.91;76.07
11672;BME280;5892;43.412;24.612;2023-09-08T00:58:26;100520.25;;;18.89;76.22
11672;BME280;5892;43.412;24.612;2023-09-08T01:00:54;100524.13;;;18.85;76.96
11672;BME280;5892;43.412;24.612;2023-09-08T01:03:23;100522.53;;;18.84;76.85
11672;BME280;5892;43.412;24.612;2023-09-08T01:05:50;100508.84;;;18.75;77.12
11672;BME280;5892;43.412;24.612;2023-09-08T01:08:17;100522.84;;;18.63;78.13
11672;BME280;5892;43.412;24.612;2023-09-08T01:10:45;100517.25;;;18.47;78.14
11672;BME280;5892;43.412;24.612;2023-09-08T01:13:13;100504.34;;;18.24;78.71
11672;BME280;5892;43.412;24.612;2023-09-08T01:15:40;100514.47;;;18.32;78.85
11672;BME280;5892;43.412;24.612;2023-09-08T01:18:08;100429.97;;;17.66;80.05
11672;BME280;5892;43.412;24.612;2023-09-08T01:20:47;100514.28;;;18.09;80.45
11672;BME280;5892;43.412;24.612;2023-09-08T01:23:19;100508.72;;;18.09;80.51
11672;BME280;5892;43.412;24.612;2023-09-08T01:25:51;100503.78;;;18.02;80.45
11672;BME280;5892;43.412;24.612;2023-09-08T01:28:20;100512.66;;;18.08;80.84
11672;BME280;5892;43.412;24.612;2023-09-08T01:30:49;100510.22;;;18.06;81.04
11672;BME280;5892;43.412;24.612;2023-09-08T01:33:17;100517.44;;;17.95;81.50
11672;BME280;5892;43.412;24.612;2023-09-08T01:35:45;100520.69;;;17.97;81.98
11672;BME280;5892;43.412;24.612;2023-09-08T01:38:11;100501.88;;;17.91;81.85
11672;BME280;5892;43.412;24.612;2023-09-08T01:40:38;100507.13;;;17.80;82.63
11672;BME280;5892;43.412;24.612;2023-09-08T01:43:07;100513.41;;;17.77;83.01
11672;BME280;5892;43.412;24.612;2023-09-08T01:45:34;100503.94;;;17.78;83.36
11672;BME280;5892;43.412;24.612;2023-09-08T01:48:00;100506.16;;;17.72;84.00
11672;BME280;5892;43.412;24.612;2023-09-08T01:50:27;100509.28;;;17.71;84.40
11672;BME280;5892;43.412;24.612;2023-09-08T01:52:54;100519.66;;;17.74;84.64
11672;BME280;5892;43.412;24.612;2023-09-08T01:55:21;100523.50;;;17.85;84.46
11672;BME280;5892;43.412;24.612;2023-09-08T01:57:48;100524.22;;;17.82;84.68
11672;BME280;5892;43.412;24.612;2023-09-08T02:00:17;100507.13;;;17.80;85.17
11672;BME280;5892;43.412;24.612;2023-09-08T02:02:44;100520.91;;;17.76;85.59
11672;BME280;5892;43.412;24.612;2023-09-08T02:05:11;100521.25;;;17.75;86.22
11672;BME280;5892;43.412;24.612;2023-09-08T02:07:37;100520.34;;;17.71;85.78
11672;BME280;5892;43.412;24.612;2023-09-08T02:10:05;100512.06;;;17.59;85.67
11672;BME280;5892;43.412;24.612;2023-09-08T02:12:32;100520.13;;;17.64;86.39
11672;BME280;5892;43.412;24.612;2023-09-08T02:14:58;100528.94;;;17.54;86.96
11672;BME280;5892;43.412;24.612;2023-09-08T02:17:27;100517.41;;;17.52;86.87
11672;BME280;5892;43.412;24.612;2023-09-08T02:19:54;100519.94;;;17.57;87.12
11672;BME280;5892;43.412;24.612;2023-09-08T02:22:21;100520.06;;;17.60;87.33
11672;BME280;5892;43.412;24.612;2023-09-08T02:24:48;100521.66;;;17.61;87.53
11672;BME280;5892;43.412;24.612;2023-09-08T02:27:17;100517.19;;;17.45;87.73
11672;BME280;5892;43.412;24.612;2023-09-08T02:29:44;100528.75;;;17.47;87.36
11672;BME280;5892;43.412;24.612;2023-09-08T02:32:10;100523.44;;;17.42;87.92
11672;BME280;5892;43.412;24.612;2023-09-08T02:34:40;100519.53;;;17.43;87.95
11672;BME280;5892;43.412;24.612;2023-09-08T02:37:08;100520.94;;;17.24;89.22
11672;BME280;5892;43.412;24.612;2023-09-08T02:39:35;100508.72;;;17.25;89.21
11672;BME280;5892;43.412;24.612;2023-09-08T02:42:03;100518.41;;;17.31;89.27
11672;BME280;5892;43.412;24.612;2023-09-08T02:44:30;100517.59;;;17.31;89.90
11672;BME280;5892;43.412;24.612;2023-09-08T02:46:56;100512.16;;;17.22;91.21
11672;BME280;5892;43.412;24.612;2023-09-08T02:49:23;100507.59;;;17.14;91.49
11672;BME280;5892;43.412;24.612;2023-09-08T02:51:51;100506.69;;;16.98;92.60
11672;BME280;5892;43.412;24.612;2023-09-08T02:54:18;100498.19;;;16.79;93.34
11672;BME280;5892;43.412;24.612;2023-09-08T02:56:45;100510.16;;;16.95;93.20
11672;BME280;5892;43.412;24.612;2023-09-08T02:59:12;100508.09;;;16.92;92.67
11672;BME280;5892;43.412;24.612;2023-09-08T03:01:39;100488.38;;;16.81;92.92
11672;BME280;5892;43.412;24.612;2023-09-08T03:04:05;100503.94;;;16.86;93.37
11672;BME280;5892;43.412;24.612;2023-09-08T03:06:34;100489.28;;;16.98;92.95
11672;BME280;5892;43.412;24.612;2023-09-08T03:09:02;100500.69;;;16.96;93.67
11672;BME280;5892;43.412;24.612;2023-09-08T03:11:29;100500.22;;;17.06;93.06
11672;BME280;5892;43.412;24.612;2023-09-08T03:13:56;100509.47;;;16.98;92.98
11672;BME280;5892;43.412;24.612;2023-09-08T03:16:23;100504.63;;;16.95;93.62
11672;BME280;5892;43.412;24.612;2023-09-08T03:18:50;100508.56;;;16.94;93.79
11672;BME280;5892;43.412;24.612;2023-09-08T03:21:17;100505.22;;;17.01;93.46
11672;BME280;5892;43.412;24.612;2023-09-08T03:23:44;100509.47;;;16.98;92.99
11672;BME280;5892;43.412;24.612;2023-09-08T03:26:13;100497.69;;;17.01;92.80
11672;BME280;5892;43.412;24.612;2023-09-08T03:28:42;100501.50;;;16.97;92.49
11672;BME280;5892;43.412;24.612;2023-09-08T03:31:09;100505.97;;;17.01;92.88
11672;BME280;5892;43.412;24.612;2023-09-08T03:33:36;100503.22;;;17.01;93.23
11672;BME280;5892;43.412;24.612;2023-09-08T03:36:04;100497.25;;;16.99;93.59
11672;BME280;5892;43.412;24.612;2023-09-08T03:38:31;100494.81;;;16.85;94.75
11672;BME280;5892;43.412;24.612;2023-09-08T03:40:58;100501.28;;;16.89;94.89
11672;BME280;5892;43.412;24.612;2023-09-08T03:43:26;100490.69;;;16.79;95.23
11672;BME280;5892;43.412;24.612;2023-09-08T03:45:53;100495.88;;;16.81;95.32
11672;BME280;5892;43.412;24.612;2023-09-08T03:48:19;100498.28;;;16.94;94.79
11672;BME280;5892;43.412;24.612;2023-09-08T03:50:47;100500.69;;;16.96;95.02
11672;BME280;5892;43.412;24.612;2023-09-08T03:53:13;100503.94;;;16.98;95.10
11672;BME280;5892;43.412;24.612;2023-09-08T03:55:40;100503.47;;;16.96;94.91
11672;BME280;5892;43.412;24.612;2023-09-08T03:58:07;100503.00;;;16.94;95.35
11672;BME280;5892;43.412;24.612;2023-09-08T04:00:35;100502.22;;;16.93;95.17
11672;BME280;5892;43.412;24.612;2023-09-08T04:03:02;100519.97;;;17.05;94.88
11672;BME280;5892;43.412;24.612;2023-09-08T04:05:30;100515.31;;;17.09;95.05
11672;BME280;5892;43.412;24.612;2023-09-08T04:07:56;100515.56;;;17.16;94.27
11672;BME280;5892;43.412;24.612;2023-09-08T04:10:25;100514.19;;;17.10;95.44
11672;BME280;5892;43.412;24.612;2023-09-08T04:12:52;100520.72;;;17.17;95.47
11672;BME280;5892;43.412;24.612;2023-09-08T04:15:21;100515.16;;;17.29;95.28
11672;BME280;5892;43.412;24.612;2023-09-08T04:17:49;100513.88;;;17.39;94.28
11672;BME280;5892;43.412;24.612;2023-09-08T04:20:17;100529.75;;;17.54;92.72
11672;BME280;5892;43.412;24.612;2023-09-08T04:22:44;100524.84;;;17.75;90.74
11672;BME280;5892;43.412;24.612;2023-09-08T04:25:11;100534.59;;;17.85;90.47
11672;BME280;5892;43.412;24.612;2023-09-08T04:27:37;100527.50;;;18.00;89.51
11672;BME280;5892;43.412;24.612;2023-09-08T04:30:06;100526.00;;;18.18;88.65
11672;BME280;5892;43.412;24.612;2023-09-08T04:32:33;100530.47;;;18.38;87.31
11672;BME280;5892;43.412;24.612;2023-09-08T04:35:05;100534.41;;;18.53;86.59
11672;BME280;5892;43.412;24.612;2023-09-08T04:37:32;100545.66;;;18.56;86.00
11672;BME280;5892;43.412;24.612;2023-09-08T04:39:59;100536.69;;;18.47;85.93
11672;BME280;5892;43.412;24.612;2023-09-08T04:42:26;100524.38;;;18.33;86.42
11672;BME280;5892;43.412;24.612;2023-09-08T04:44:53;100543.28;;;18.43;86.80
11672;BME280;5892;43.412;24.612;2023-09-08T04:47:19;100544.03;;;18.71;85.76
11672;BME280;5892;43.412;24.612;2023-09-08T04:49:46;100527.81;;;18.89;84.22
11672;BME280;5892;43.412;24.612;2023-09-08T04:52:14;100539.81;;;19.28;82.95
11672;BME280;5892;43.412;24.612;2023-09-08T04:54:41;100551.88;;;19.51;81.71
11672;BME280;5892;43.412;24.612;2023-09-08T04:57:10;100543.19;;;19.95;78.45
11672;BME280;5892;43.412;24.612;2023-09-08T04:59:39;100540.31;;;20.10;77.64
11672;BME280;5892;43.412;24.612;2023-09-08T05:02:05;100553.25;;;20.22;76.14
11672;BME280;5892;43.412;24.612;2023-09-08T05:04:32;100555.75;;;20.27;75.76
11672;BME280;5892;43.412;24.612;2023-09-08T05:06:59;100559.19;;;20.40;74.69
11672;BME280;5892;43.412;24.612;2023-09-08T05:09:27;100556.00;;;20.87;73.09
11672;BME280;5892;43.412;24.612;2023-09-08T05:11:54;100550.44;;;20.87;72.02
11672;BME280;5892;43.412;24.612;2023-09-08T05:14:21;100559.16;;;20.85;72.40
11672;BME280;5892;43.412;24.612;2023-09-08T05:16:50;100556.09;;;20.94;72.15
11672;BME280;5892;43.412;24.612;2023-09-08T05:19:21;100569.34;;;20.51;74.08
11672;BME280;5892;43.412;24.612;2023-09-08T05:21:50;100565.06;;;20.57;74.02
11672;BME280;5892;43.412;24.612;2023-09-08T05:24:17;100560.06;;;20.66;74.12
11672;BME280;5892;43.412;24.612;2023-09-08T05:26:45;100551.81;;;20.73;72.82
11672;BME280;5892;43.412;24.612;2023-09-08T05:29:13;100566.88;;;21.18;71.32
11672;BME280;5892;43.412;24.612;2023-09-08T05:31:40;100551.56;;;21.65;69.87
11672;BME280;5892;43.412;24.612;2023-09-08T05:34:06;100560.09;;;22.09;67.08
11672;BME280;5892;43.412;24.612;2023-09-08T05:36:33;100566.00;;;22.40;65.19
11672;BME280;5892;43.412;24.612;2023-09-08T05:39:02;100572.72;;;22.73;63.42
11672;BME280;5892;43.412;24.612;2023-09-08T05:41:29;100580.09;;;22.95;62.47
11672;BME280;5892;43.412;24.612;2023-09-08T05:43:57;100577.22;;;22.85;62.78
11672;BME280;5892;43.412;24.612;2023-09-08T05:46:24;100579.81;;;22.67;63.45
11672;BME280;5892;43.412;24.612;2023-09-08T05:48:52;100575.97;;;22.82;62.89
11672;BME280;5892;43.412;24.612;2023-09-08T05:51:19;100572.78;;;22.80;63.67
11672;BME280;5892;43.412;24.612;2023-09-08T05:53:46;100574.84;;;22.90;62.84
11672;BME280;5892;43.412;24.612;2023-09-08T05:56:14;100577.66;;;22.94;62.64
11672;BME280;5892;43.412;24.612;2023-09-08T05:58:40;100566.56;;;23.01;62.65
11672;BME280;5892;43.412;24.612;2023-09-08T06:01:09;100573.78;;;23.05;62.97
11672;BME280;5892;43.412;24.612;2023-09-08T06:03:35;100567.31;;;22.98;62.13
11672;BME280;5892;43.412;24.612;2023-09-08T06:06:02;100571.47;;;23.18;62.07
11672;BME280;5892;43.412;24.612;2023-09-08T06:08:29;100565.16;;;23.32;61.63
11672;BME280;5892;43.412;24.612;2023-09-08T06:10:56;100566.78;;;23.36;61.14
11672;BME280;5892;43.412;24.612;2023-09-08T06:13:23;100566.88;;;23.47;60.60
11672;BME280;5892;43.412;24.612;2023-09-08T06:15:50;100544.31;;;23.18;60.53
11672;BME280;5892;43.412;24.612;2023-09-08T06:18:18;100565.31;;;23.53;60.41
11672;BME280;5892;43.412;24.612;2023-09-08T06:20:45;100554.22;;;23.71;59.56
11672;BME280;5892;43.412;24.612;2023-09-08T06:23:12;100569.91;;;24.03;58.51
11672;BME280;5892;43.412;24.612;2023-09-08T06:25:39;100556.28;;;23.91;57.97
11672;BME280;5892;43.412;24.612;2023-09-08T06:28:07;100572.34;;;24.16;57.42
11672;BME280;5892;43.412;24.612;2023-09-08T06:30:33;100557.63;;;24.33;56.30
11672;BME280;5892;43.412;24.612;2023-09-08T06:33:00;100576.00;;;24.30;56.91
11672;BME280;5892;43.412;24.612;2023-09-08T06:35:30;100560.06;;;24.59;55.63
11672;BME280;5892;43.412;24.612;2023-09-08T06:37:56;100571.25;;;24.73;55.65
11672;BME280;5892;43.412;24.612;2023-09-08T06:40:23;100558.88;;;24.88;55.42
11672;BME280;5892;43.412;24.612;2023-09-08T06:42:50;100565.25;;;25.14;54.53
11672;BME280;5892;43.412;24.612;2023-09-08T06:45:17;100575.22;;;25.36;54.47
11672;BME280;5892;43.412;24.612;2023-09-08T06:47:44;100580.84;;;25.29;52.93
11672;BME280;5892;43.412;24.612;2023-09-08T06:50:11;100576.03;;;25.33;52.89
11672;BME280;5892;43.412;24.612;2023-09-08T06:52:39;100578.06;;;25.15;52.82
11672;BME280;5892;43.412;24.612;2023-09-08T06:55:07;100586.84;;;25.31;52.67
11672;BME280;5892;43.412;24.612;2023-09-08T06:57:35;100582.06;;;24.57;55.29
11672;BME280;5892;43.412;24.612;2023-09-08T07:00:02;100581.28;;;25.06;54.73
11672;BME280;5892;43.412;24.612;2023-09-08T07:02:32;100577.63;;;25.34;53.39
11672;BME280;5892;43.412;24.612;2023-09-08T07:04:59;100585.69;;;25.11;53.23
11672;BME280;5892;43.412;24.612;2023-09-08T07:10:26;100585.66;;;25.18;53.00
11672;BME280;5892;43.412;24.612;2023-09-08T07:12:53;100581.28;;;24.99;54.07
11672;BME280;5892;43.412;24.612;2023-09-08T07:15:20;100575.66;;;25.24;53.23
11672;BME280;5892;43.412;24.612;2023-09-08T07:17:47;100578.41;;;25.42;53.02
11672;BME280;5892;43.412;24.612;2023-09-08T07:20:14;100578.84;;;25.37;52.75
11672;BME280;5892;43.412;24.612;2023-09-08T07:22:41;100589.63;;;25.49;52.80
11672;BME280;5892;43.412;24.612;2023-09-08T07:25:09;100587.16;;;25.79;51.96
11672;BME280;5892;43.412;24.612;2023-09-08T07:27:38;100567.88;;;25.81;51.47
11672;BME280;5892;43.412;24.612;2023-09-08T07:30:08;100578.22;;;26.02;51.06
11672;BME280;5892;43.412;24.612;2023-09-08T07:32:35;100580.53;;;26.21;51.30
11672;BME280;5892;43.412;24.612;2023-09-08T07:35:02;100589.28;;;26.34;50.67
11672;BME280;5892;43.412;24.612;2023-09-08T07:37:29;100580.34;;;26.49;50.22
11672;BME280;5892;43.412;24.612;2023-09-08T07:39:56;100589.88;;;26.66;49.68
11672;BME280;5892;43.412;24.612;2023-09-08T07:42:23;100594.59;;;26.80;49.33
11672;BME280;5892;43.412;24.612;2023-09-08T07:44:52;100591.00;;;26.76;48.71
11672;BME280;5892;43.412;24.612;2023-09-08T07:47:19;100584.22;;;26.70;48.93
11672;BME280;5892;43.412;24.612;2023-09-08T07:49:47;100590.25;;;26.72;48.93
11672;BME280;5892;43.412;24.612;2023-09-08T07:52:14;100583.13;;;26.56;48.77
11672;BME280;5892;43.412;24.612;2023-09-08T07:54:41;100574.91;;;26.80;48.48
11672;BME280;5892;43.412;24.612;2023-09-08T07:57:08;100582.16;;;26.77;48.52
11672;BME280;5892;43.412;24.612;2023-09-08T07:59:35;100588.63;;;26.74;48.91
11672;BME280;5892;43.412;24.612;2023-09-08T08:02:03;100578.91;;;26.82;48.48
11672;BME280;5892;43.412;24.612;2023-09-08T08:04:30;100583.72;;;26.82;47.95
11672;BME280;5892;43.412;24.612;2023-09-08T08:06:57;100582.00;;;26.43;48.87
11672;BME280;5892;43.412;24.612;2023-09-08T08:09:24;100576.53;;;26.22;50.06
11672;BME280;5892;43.412;24.612;2023-09-08T08:11:51;100579.63;;;26.38;49.51
11672;BME280;5892;43.412;24.612;2023-09-08T08:14:18;100580.31;;;26.56;49.64
11672;BME280;5892;43.412;24.612;2023-09-08T08:16:45;100579.84;;;26.69;49.00
11672;BME280;5892;43.412;24.612;2023-09-08T08:19:13;100570.44;;;26.86;48.24
11672;BME280;5892;43.412;24.612;2023-09-08T08:21:40;100565.97;;;26.95;47.76
11672;BME280;5892;43.412;24.612;2023-09-08T08:24:08;100579.06;;;27.13;48.23
11672;BME280;5892;43.412;24.612;2023-09-08T08:26:35;100580.00;;;26.99;47.75
11672;BME280;5892;43.412;24.612;2023-09-08T08:29:02;100582.44;;;26.97;48.56
11672;BME280;5892;43.412;24.612;2023-09-08T08:31:29;100584.28;;;27.14;47.94
11672;BME280;5892;43.412;24.612;2023-09-08T08:33:56;100574.66;;;27.12;47.58
11672;BME280;5892;43.412;24.612;2023-09-08T08:36:24;100564.53;;;27.21;47.92
11672;BME280;5892;43.412;24.612;2023-09-08T08:38:51;100582.28;;;27.11;47.51
11672;BME280;5892;43.412;24.612;2023-09-08T08:41:18;100576.94;;;26.76;48.08
11672;BME280;5892;43.412;24.612;2023-09-08T08:43:45;100581.31;;;26.80;47.70
11672;BME280;5892;43.412;24.612;2023-09-08T08:46:13;100579.75;;;26.79;47.84
11672;BME280;5892;43.412;24.612;2023-09-08T08:48:40;100574.47;;;26.88;46.98
11672;BME280;5892;43.412;24.612;2023-09-08T08:51:10;100580.06;;;26.92;47.56
11672;BME280;5892;43.412;24.612;2023-09-08T08:53:39;100562.63;;;27.08;47.42
11672;BME280;5892;43.412;24.612;2023-09-08T08:56:09;100570.25;;;27.11;46.96
11672;BME280;5892;43.412;24.612;2023-09-08T08:58:39;100565.84;;;27.06;47.00
11672;BME280;5892;43.412;24.612;2023-09-08T09:01:07;100568.47;;;27.27;46.69
11672;BME280;5892;43.412;24.612;2023-09-08T09:03:34;100567.44;;;27.52;46.49
11672;BME280;5892;43.412;24.612;2023-09-08T09:06:03;100563.03;;;27.47;45.56
11672;BME280;5892;43.412;24.612;2023-09-08T09:08:31;100566.59;;;27.55;45.54
11672;BME280;5892;43.412;24.612;2023-09-08T09:11:00;100565.44;;;27.52;44.90
11672;BME280;5892;43.412;24.612;2023-09-08T09:13:27;100560.13;;;27.58;45.04
11672;BME280;5892;43.412;24.612;2023-09-08T09:15:58;100559.53;;;27.73;44.57
11672;BME280;5892;43.412;24.612;2023-09-08T09:18:25;100560.16;;;27.88;44.10
11672;BME280;5892;43.412;24.612;2023-09-08T09:20:56;100565.59;;;27.72;44.34
11672;BME280;5892;43.412;24.612;2023-09-08T09:23:29;100557.69;;;27.60;44.44
11672;BME280;5892;43.412;24.612;2023-09-08T09:25:57;100560.88;;;27.62;44.10
11672;BME280;5892;43.412;24.612;2023-09-08T09:28:28;100556.94;;;27.56;45.20
11672;BME280;5892;43.412;24.612;2023-09-08T09:30:55;100557.41;;;27.81;44.26
11672;BME280;5892;43.412;24.612;2023-09-08T09:33:22;100527.00;;;27.69;44.49
11672;BME280;5892;43.412;24.612;2023-09-08T09:35:50;100530.72;;;27.93;44.05
11672;BME280;5892;43.412;24.612;2023-09-08T09:38:18;100553.09;;;27.73;43.98
11672;BME280;5892;43.412;24.612;2023-09-08T09:40:46;100548.75;;;27.68;43.97
11672;BME280;5892;43.412;24.612;2023-09-08T09:43:15;100551.31;;;27.86;43.08
11672;BME280;5892;43.412;24.612;2023-09-08T09:45:43;100536.28;;;27.96;43.18
11672;BME280;5892;43.412;24.612;2023-09-08T09:48:11;100540.56;;;28.08;41.76
11672;BME280;5892;43.412;24.612;2023-09-08T09:50:39;100541.66;;;28.17;41.68
11672;BME280;5892;43.412;24.612;2023-09-08T09:53:10;100516.72;;;28.16;41.83
11672;BME280;5892;43.412;24.612;2023-09-08T09:55:39;100527.44;;;28.51;41.14
11672;BME280;5892;43.412;24.612;2023-09-08T09:58:07;100517.00;;;28.75;40.25
11672;BME280;5892;43.412;24.612;2023-09-08T10:00:36;100516.81;;;28.86;40.01
11672;BME280;5892;43.412;24.612;2023-09-08T10:03:05;100519.44;;;28.96;40.23
11672;BME280;5892;43.412;24.612;2023-09-08T10:05:33;100517.72;;;29.02;40.18
11672;BME280;5892;43.412;24.612;2023-09-08T10:08:00;100490.91;;;29.14;40.43
11672;BME280;5892;43.412;24.612;2023-09-08T10:10:29;100503.22;;;29.43;38.58
11672;BME280;5892;43.412;24.612;2023-09-08T10:13:02;100511.47;;;28.91;39.33
11672;BME280;5892;43.412;24.612;2023-09-08T10:15:31;100509.41;;;28.72;39.77
11672;BME280;5892;43.412;24.612;2023-09-08T10:17:59;100511.28;;;28.29;40.46
11672;BME280;5892;43.412;24.612;2023-09-08T10:20:30;100512.72;;;28.40;40.92
11672;BME280;5892;43.412;24.612;2023-09-08T10:23:04;100518.53;;;28.53;39.56
11672;BME280;5892;43.412;24.612;2023-09-08T10:25:36;100502.50;;;28.50;40.48
11672;BME280;5892;43.412;24.612;2023-09-08T10:28:04;100512.81;;;28.60;38.70
11672;BME280;5892;43.412;24.612;2023-09-08T10:30:33;100498.25;;;28.38;39.54
11672;BME280;5892;43.412;24.612;2023-09-08T10:33:01;100490.50;;;28.46;39.66
11672;BME280;5892;43.412;24.612;2023-09-08T10:35:30;100488.25;;;28.84;38.99
11672;BME280;5892;43.412;24.612;2023-09-08T10:38:21;100496.09;;;29.16;38.47
11672;BME280;5892;43.412;24.612;2023-09-08T10:40:48;100497.47;;;29.08;38.06
11672;BME280;5892;43.412;24.612;2023-09-08T10:43:15;100486.78;;;28.76;38.67
11672;BME280;5892;43.412;24.612;2023-09-08T10:45:43;100490.41;;;28.76;38.47
11672;BME280;5892;43.412;24.612;2023-09-08T10:48:10;100452.25;;;28.68;38.02
11672;BME280;5892;43.412;24.612;2023-09-08T10:50:40;100485.72;;;28.89;37.92
11672;BME280;5892;43.412;24.612;2023-09-08T10:53:11;100448.41;;;29.01;37.64
11672;BME280;5892;43.412;24.612;2023-09-08T10:55:42;100461.31;;;29.42;37.06
11672;BME280;5892;43.412;24.612;2023-09-08T10:58:18;100473.56;;;29.55;37.13
11672;BME280;5892;43.412;24.612;2023-09-08T11:00:47;100480.13;;;29.29;37.96
11672;BME280;5892;43.412;24.612;2023-09-08T11:03:25;100478.38;;;29.15;37.77
11672;BME280;5892;43.412;24.612;2023-09-08T11:05:56;100475.22;;;29.33;37.58
11672;BME280;5892;43.412;24.612;2023-09-08T11:08:22;100466.31;;;29.54;36.95
11672;BME280;5892;43.412;24.612;2023-09-08T11:10:49;100462.13;;;29.62;37.06
11672;BME280;5892;43.412;24.612;2023-09-08T11:13:17;100454.72;;;29.84;36.91
11672;BME280;5892;43.412;24.612;2023-09-08T11:15:51;100470.25;;;29.40;37.47
11672;BME280;5892;43.412;24.612;2023-09-08T11:18:26;100442.06;;;29.37;38.05
11672;BME280;5892;43.412;24.612;2023-09-08T11:20:54;100432.88;;;28.93;38.18
11672;BME280;5892;43.412;24.612;2023-09-08T11:23:22;100466.81;;;28.63;39.39
11672;BME280;5892;43.412;24.612;2023-09-08T11:25:50;100469.34;;;28.34;40.33
11672;BME280;5892;43.412;24.612;2023-09-08T11:28:18;100460.47;;;28.36;40.73
11672;BME280;5892;43.412;24.612;2023-09-08T11:30:47;100450.13;;;28.52;40.30
11672;BME280;5892;43.412;24.612;2023-09-08T11:33:15;100447.50;;;28.85;39.87
11672;BME280;5892;43.412;24.612;2023-09-08T11:35:42;100449.13;;;29.05;38.49
11672;BME280;5892;43.412;24.612;2023-09-08T11:38:11;100442.75;;;29.01;37.86
11672;BME280;5892;43.412;24.612;2023-09-08T11:40:38;100445.59;;;29.21;37.31
11672;BME280;5892;43.412;24.612;2023-09-08T11:43:05;100435.09;;;29.22;37.24
11672;BME280;5892;43.412;24.612;2023-09-08T11:45:35;100418.41;;;28.68;38.59
11672;BME280;5892;43.412;24.612;2023-09-08T11:48:03;100414.72;;;28.48;39.61
11672;BME280;5892;43.412;24.612;2023-09-08T11:50:30;100427.94;;;28.31;39.48
11672;BME280;5892;43.412;24.612;2023-09-08T11:52:58;100408.50;;;28.37;39.32
11672;BME280;5892;43.412;24.612;2023-09-08T11:55:27;100405.78;;;28.53;39.24
11672;BME280;5892;43.412;24.612;2023-09-08T11:57:55;100411.97;;;28.68;39.23
11672;BME280;5892;43.412;24.612;2023-09-08T12:00:25;100412.53;;;28.82;39.66
11672;BME280;5892;43.412;24.612;2023-09-08T12:02:53;100394.00;;;29.01;39.24
11672;BME280;5892;43.412;24.612;2023-09-08T12:05:21;100403.81;;;29.36;38.57
11672;BME280;5892;43.412;24.612;2023-09-08T12:07:50;100400.66;;;29.50;37.62
11672;BME280;5892;43.412;24.612;2023-09-08T12:10:18;100404.56;;;29.56;37.22
11672;BME280;5892;43.412;24.612;2023-09-08T12:12:47;100400.66;;;29.50;37.31
11672;BME280;5892;43.412;24.612;2023-09-08T12:15:30;100397.13;;;29.46;37.18
11672;BME280;5892;43.412;24.612;2023-09-08T12:17:58;100399.72;;;29.57;37.75
11672;BME280;5892;43.412;24.612;2023-09-08T12:20:26;100391.25;;;29.57;38.37
11672;BME280;5892;43.412;24.612;2023-09-08T12:22:52;100385.56;;;29.40;39.40
11672;BME280;5892;43.412;24.612;2023-09-08T12:25:19;100384.25;;;28.86;41.23
11672;BME280;5892;43.412;24.612;2023-09-08T12:27:50;100383.38;;;28.46;42.24
11672;BME280;5892;43.412;24.612;2023-09-08T12:30:18;100381.84;;;28.41;42.71
11672;BME280;5892;43.412;24.612;2023-09-08T12:32:47;100381.28;;;28.27;43.89
11672;BME280;5892;43.412;24.612;2023-09-08T12:35:20;100414.44;;;28.19;45.37
11672;BME280;5892;43.412;24.612;2023-09-08T12:37:53;100380.38;;;27.83;46.53
11672;BME280;5892;43.412;24.612;2023-09-08T12:40:20;100383.53;;;27.62;47.71
11672;BME280;5892;43.412;24.612;2023-09-08T12:42:49;100355.56;;;27.48;47.87
11672;BME280;5892;43.412;24.612;2023-09-08T12:45:16;100379.28;;;27.77;47.62
11672;BME280;5892;43.412;24.612;2023-09-08T12:47:42;100362.59;;;27.90;46.52
11672;BME280;5892;43.412;24.612;2023-09-08T12:50:10;100366.38;;;28.03;45.87
11672;BME280;5892;43.412;24.612;2023-09-08T12:52:38;100382.09;;;28.00;45.02
11672;BME280;5892;43.412;24.612;2023-09-08T12:55:06;100358.84;;;27.96;45.30
11672;BME280;5892;43.412;24.612;2023-09-08T12:57:33;100361.06;;;28.08;46.25
11672;BME280;5892;43.412;24.612;2023-09-08T13:00:02;100301.88;;;27.85;45.45